F/V Oceanie — FVBW — position and weather

sailwx.info

Track history (hours):
 
Tides and Currents Weather Stations Pressure Air Temp Water Temp Dewpoint Dewpoint Depression Visibility Wind Speed Wind Dir Waves Ship Positions

F/V Oceanie

Last reported at 2014-Dec-16 09:33 UTC. Time now 2014-Dec-18 00:57 UTC.
Position N 47°36' W 003°24'.

Length 16 m.

Type: Fishing. MMSI: 228370000.

Date/timePositionNaut miles runAvg speedWind from/ knotsBaromVisibWave heightAir tempDewpointWater temp
2014-Dec-16 09:33N 47°36' W 003°24'8 8.1
2014-Dec-16 08:33N 47°44' W 003°22'0 0.0
2014-Dec-16 07:33N 47°44' W 003°22'3 3.4
2014-Dec-16 06:33N 47°41' W 003°25'64 5.8
2014-Dec-15 19:33N 47°59' W 004°57'4 3.2
2014-Dec-15 18:28N 48°01' W 005°01'2 1.6
2014-Dec-15 17:15N 47°59' W 004°59'5 3.8
2014-Dec-15 16:04N 47°57' W 004°53'2 3.3
2014-Dec-15 15:33N 47°56' W 004°52'1 0.5
2014-Dec-15 14:16N 47°56' W 004°52'1 0.7
2014-Dec-15 13:32N 47°56' W 004°53'2 1.1
2014-Dec-15 11:34N 47°58' W 004°56'1 1.3
2014-Dec-15 10:30N 47°59' W 004°57'1 0.2
2014-Dec-15 05:05N 47°58' W 004°58'2 3.4
2014-Dec-15 04:30N 47°59' W 004°60'1 1.0
2014-Dec-15 03:05N 48°00' W 004°59'2 3.5
2014-Dec-15 02:34N 47°59' W 004°57'4 3.4
2014-Dec-15 01:24N 48°01' W 005°02'4 2.1
2014-Dec-14 23:16N 47°59' W 004°56'1 0.4
2014-Dec-14 20:27N 47°59' W 004°58'59 7.4
2014-Dec-14 12:33N 47°42' W 003°34'9 8.6
2014-Dec-14 11:34N 47°43' W 003°22'  
2014-Dec-11 18:33N 47°44' W 003°22'3 3.3
2014-Dec-11 17:33N 47°40' W 003°22'8 8.3
2014-Dec-11 16:33N 47°32' W 003°21'7 1.4
2014-Dec-11 11:23N 47°25' W 003°22'5 1.0
2014-Dec-11 06:17N 47°25' W 003°14'4 3.6
2014-Dec-11 05:09N 47°25' W 003°20'1 0.8
2014-Dec-11 04:04N 47°25' W 003°21'1 0.7
2014-Dec-11 03:10N 47°25' W 003°21'3 5.8
2014-Dec-11 02:33N 47°29' W 003°23'8 8.3
2014-Dec-11 01:33N 47°37' W 003°22'7 6.9
2014-Dec-11 00:34N 47°44' W 003°22'0 0.1
2014-Dec-10 23:33N 47°44' W 003°22'5 4.9
2014-Dec-10 22:33N 47°39' W 003°22'11 8.0
2014-Dec-10 21:11N 47°28' W 003°24'3 0.1
2014-Dec-09 03:13N 47°26' W 003°20'6 9.3
2014-Dec-09 02:33N 47°32' W 003°22'9 9.2
2014-Dec-09 01:33N 47°41' W 003°22'3 2.7
2014-Dec-09 00:33N 47°44' W 003°22'0 0.2
2014-Dec-08 23:33N 47°44' W 003°22'4 3.9
2014-Dec-08 22:34N 47°40' W 003°22'8 8.0
2014-Dec-08 21:33N 47°32' W 003°25'1 0.0
2014-Dec-08 03:33N 47°32' W 003°23'9 9.0
2014-Dec-08 02:34N 47°41' W 003°22'  
Track history (hours):
 
Tides and Currents Weather Stations Pressure Air Temp Water Temp Dewpoint Dewpoint Depression Visibility Wind Speed Wind Dir Waves Ship Positions

F/V Oceanie

Last reported at 2014-Dec-16 09:33 UTC. Time now 2014-Dec-18 00:57 UTC.
Position N 47°36' W 003°24'.

Length 16 m.

Type: Fishing. MMSI: 228370000.

Date/timePositionNaut miles runAvg speedWind from/ knotsBaromVisibWave heightAir tempDewpointWater temp
2014-Dec-16 09:33N 47°36' W 003°24'8 8.1
2014-Dec-16 08:33N 47°44' W 003°22'0 0.0
2014-Dec-16 07:33N 47°44' W 003°22'3 3.4
2014-Dec-16 06:33N 47°41' W 003°25'64 5.8
2014-Dec-15 19:33N 47°59' W 004°57'4 3.2
2014-Dec-15 18:28N 48°01' W 005°01'2 1.6
2014-Dec-15 17:15N 47°59' W 004°59'5 3.8
2014-Dec-15 16:04N 47°57' W 004°53'2 3.3
2014-Dec-15 15:33N 47°56' W 004°52'1 0.5
2014-Dec-15 14:16N 47°56' W 004°52'1 0.7
2014-Dec-15 13:32N 47°56' W 004°53'2 1.1
2014-Dec-15 11:34N 47°58' W 004°56'1 1.3
2014-Dec-15 10:30N 47°59' W 004°57'1 0.2
2014-Dec-15 05:05N 47°58' W 004°58'2 3.4
2014-Dec-15 04:30N 47°59' W 004°60'1 1.0
2014-Dec-15 03:05N 48°00' W 004°59'2 3.5
2014-Dec-15 02:34N 47°59' W 004°57'4 3.4
2014-Dec-15 01:24N 48°01' W 005°02'4 2.1
2014-Dec-14 23:16N 47°59' W 004°56'1 0.4
2014-Dec-14 20:27N 47°59' W 004°58'59 7.4
2014-Dec-14 12:33N 47°42' W 003°34'9 8.6
2014-Dec-14 11:34N 47°43' W 003°22'  
2014-Dec-11 18:33N 47°44' W 003°22'3 3.3
2014-Dec-11 17:33N 47°40' W 003°22'8 8.3
2014-Dec-11 16:33N 47°32' W 003°21'7 1.4
2014-Dec-11 11:23N 47°25' W 003°22'5 1.0
2014-Dec-11 06:17N 47°25' W 003°14'4 3.6
2014-Dec-11 05:09N 47°25' W 003°20'1 0.8
2014-Dec-11 04:04N 47°25' W 003°21'1 0.7
2014-Dec-11 03:10N 47°25' W 003°21'3 5.8
2014-Dec-11 02:33N 47°29' W 003°23'8 8.3
2014-Dec-11 01:33N 47°37' W 003°22'7 6.9
2014-Dec-11 00:34N 47°44' W 003°22'0 0.1
2014-Dec-10 23:33N 47°44' W 003°22'5 4.9
2014-Dec-10 22:33N 47°39' W 003°22'11 8.0
2014-Dec-10 21:11N 47°28' W 003°24'3 0.1
2014-Dec-09 03:13N 47°26' W 003°20'6 9.3
2014-Dec-09 02:33N 47°32' W 003°22'9 9.2
2014-Dec-09 01:33N 47°41' W 003°22'3 2.7
2014-Dec-09 00:33N 47°44' W 003°22'0 0.2
2014-Dec-08 23:33N 47°44' W 003°22'4 3.9
2014-Dec-08 22:34N 47°40' W 003°22'8 8.0
2014-Dec-08 21:33N 47°32' W 003°25'1 0.0
2014-Dec-08 03:33N 47°32' W 003°23'9 9.0
2014-Dec-08 02:34N 47°41' W 003°22'  

Dump ship's entire track history